Time;durP1;ratioP1;P1;durP2;ratioP2;P2;SDS_P1;SDS_P2;PMS_P1;PMS_P2;Temp;Humidity;BMP_temperature;BMP_pressure;BME280_temperature;BME280_humidity;BME280_pressure;Samples;Min_cycle;Max_cycle;Signal;HPM_P1;HPM_P2
2022/02/02 00:00:06;;;;;;;5.45;2.88;;;6.90;99.90;;;;;;5096335;28;20032;-75
2022/02/02 00:02:42;;;;;;;6.63;2.63;;;6.90;99.90;;;;;;5102388;28;20127;-75
2022/02/02 00:05:34;;;;;;;12.70;2.50;;;6.90;99.90;;;;;;5095863;28;20039;-76
2022/02/02 00:08:05;;;;;;;3.88;2.03;;;6.90;99.90;;;;;;5095572;28;20461;-77
2022/02/02 00:13:28;;;;;;;;;;;7.00;99.90;;;;;;5096043;28;20036;-77
2022/02/02 00:16:05;;;;;;;10.38;2.53;;;7.00;99.90;;;;;;5096583;28;19919;-77
2022/02/02 00:21:23;;;;;;;4.63;2.35;;;6.90;99.90;;;;;;5095247;28;20032;-76
2022/02/02 00:23:54;;;;;;;6.07;2.33;;;6.90;99.90;;;;;;5095494;28;20055;-76
2022/02/02 00:26:34;;;;;;;;;;;6.80;99.90;;;;;;5096097;28;20385;-76
2022/02/02 00:29:06;;;;;;;4.00;1.90;;;6.80;99.90;;;;;;5094381;28;19924;-76
2022/02/02 00:31:39;;;;;;;12.68;2.63;;;6.90;99.90;;;;;;5094784;28;20056;-75
2022/02/02 00:34:09;;;;;;;3.20;2.08;;;6.80;99.90;;;;;;5095139;28;20461;-76
2022/02/02 00:36:58;;;;;;;12.40;3.50;;;6.80;99.90;;;;;;5094843;28;20028;-75
2022/02/02 00:39:27;;;;;;;11.77;3.53;;;6.70;99.90;;;;;;5094784;28;20047;-76
2022/02/02 00:41:56;;;;;;;;;;;6.70;99.90;;;;;;5095425;28;20038;-76
2022/02/02 00:44:23;;;;;;;8.85;3.10;;;6.70;99.90;;;;;;5094361;28;20279;-76
2022/02/02 00:46:50;;;;;;;13.20;3.17;;;6.80;99.90;;;;;;5095015;28;20028;-75
2022/02/02 00:49:16;;;;;;;9.73;3.42;;;6.70;99.90;;;;;;5094629;28;20040;-77
2022/02/02 00:51:47;;;;;;;13.55;3.53;;;6.70;99.90;;;;;;5094121;28;20059;-76
2022/02/02 00:54:17;;;;;;;9.52;3.25;;;6.70;99.90;;;;;;5094834;28;20043;-75
2022/02/02 00:56:43;;;;;;;8.07;3.28;;;6.80;99.90;;;;;;5093613;28;20040;-75
2022/02/02 00:59:10;;;;;;;9.20;2.75;;;6.90;99.90;;;;;;5094963;28;20457;-75
2022/02/02 01:01:37;;;;;;;8.50;2.63;;;6.80;99.90;;;;;;5094077;28;20047;-75
2022/02/02 01:04:04;;;;;;;7.45;2.67;;;6.80;99.90;;;;;;5093796;28;20417;-75
2022/02/02 01:06:33;;;;;;;6.28;2.53;;;6.70;99.90;;;;;;5094322;28;20040;-75
2022/02/02 01:20:32;;;;;;;10.38;2.90;;;6.70;99.90;;;;;;5094245;28;20040;-75
2022/02/02 01:28:28;;;;;;;6.82;2.45;;;6.80;99.90;;;;;;5093940;28;20028;-74
2022/02/02 01:30:55;;;;;;;8.98;2.88;;;6.90;99.90;;;;;;5094396;28;20051;-75
2022/02/02 01:33:22;;;;;;;5.60;2.17;;;6.80;99.90;;;;;;5099907;28;20035;-75
2022/02/02 01:35:49;;;;;;;6.03;2.97;;;6.80;99.90;;;;;;5099753;28;20024;-75
2022/02/02 01:38:16;;;;;;;12.23;3.40;;;6.90;99.90;;;;;;5094772;28;20024;-75
2022/02/02 01:40:47;;;;;;;7.53;3.15;;;6.90;99.90;;;;;;5093485;28;20032;-74
2022/02/02 01:43:21;;;;;;;4.85;2.75;;;7.10;99.90;;;;;;5094379;28;20036;-74
2022/02/02 01:45:58;;;;;;;9.35;3.50;;;7.10;99.90;;;;;;5093450;28;20036;-75
2022/02/02 01:55:57;;;;;;;9.32;3.05;;;6.90;99.90;;;;;;5093804;28;20031;-76
2022/02/02 02:01:09;;;;;;;10.05;3.40;;;6.70;99.90;;;;;;5093438;28;20036;-75
2022/02/02 02:03:36;;;;;;;12.80;3.20;;;6.70;99.90;;;;;;5092615;28;20492;-75
2022/02/02 02:06:03;;;;;;;5.82;3.03;;;6.70;99.90;;;;;;5093670;28;20039;-75
2022/02/02 02:08:30;;;;;;;12.85;2.95;;;6.60;99.90;;;;;;5092052;28;20044;-74
2022/02/02 02:10:57;;;;;;;18.85;4.40;;;6.60;99.90;;;;;;5092622;28;20067;-75
2022/02/02 02:16:07;;;;;;;12.68;3.47;;;6.50;99.90;;;;;;5093197;28;20032;-76
2022/02/02 02:18:34;;;;;;;10.15;2.83;;;6.50;99.90;;;;;;5092884;28;20043;-76
2022/02/02 02:21:00;;;;;;;8.30;4.38;;;6.50;99.90;;;;;;5093138;28;20036;-76
2022/02/02 02:23:26;;;;;;;5.43;3.38;;;6.70;99.90;;;;;;5093149;28;20032;-76
2022/02/02 02:25:52;;;;;;;8.18;3.67;;;6.70;99.90;;;;;;5074546;28;20032;-76
2022/02/02 02:31:16;;;;;;;10.63;4.20;;;6.70;99.90;;;;;;5093364;28;20039;-76
2022/02/02 02:36:54;;;;;;;9.63;4.25;;;6.80;99.90;;;;;;5061295;28;20048;-76
2022/02/02 02:39:41;;;;;;;15.48;4.55;;;6.80;99.90;;;;;;5093337;28;20366;-76
2022/02/02 02:55:57;;;;;;;11.93;4.53;;;7.20;99.90;;;;;;5091975;28;20032;-77
2022/02/02 03:30:19;;;;;;;11.88;4.63;;;7.30;99.90;;;;;;5091853;28;20028;-76
2022/02/02 03:49:47;;;;;;;11.98;4.47;;;7.10;99.90;;;;;;5091394;28;20040;-77
2022/02/02 04:05:53;;;;;;;9.20;4.32;;;6.70;99.90;;;;;;5046465;28;20048;-77
2022/02/02 04:10:46;;;;;;;13.43;5.68;;;6.70;99.90;;;;;;5090950;28;20055;-74
2022/02/02 05:07:24;;;;;;;17.33;5.22;;;7.20;99.90;;;;;;5085200;28;20043;-77
2022/02/02 05:18:18;;;;;;;15.63;3.83;;;7.20;99.90;;;;;;5093828;28;20039;-77
2022/02/02 05:40:56;;;;;;;18.88;4.43;;;7.50;98.20;;;;;;5095315;28;20036;-78
2022/02/02 05:53:12;;;;;;;11.75;5.72;;;7.00;99.90;;;;;;5098517;28;20366;-77
2022/02/02 05:55:40;;;;;;;14.32;8.82;;;7.10;99.90;;;;;;5094243;28;20110;-76
2022/02/02 05:58:08;;;;;;;22.63;8.70;;;7.00;99.90;;;;;;5093694;28;20048;-76
2022/02/02 06:00:39;;;;;;;13.80;5.40;;;7.00;99.90;;;;;;5094176;28;20047;-76
2022/02/02 06:03:10;;;;;;;30.80;7.25;;;7.00;99.90;;;;;;5092979;28;20392;-77
2022/02/02 06:05:38;;;;;;;12.95;5.45;;;6.90;99.90;;;;;;5094327;28;20040;-76
2022/02/02 06:08:10;;;;;;;26.92;6.05;;;6.90;99.90;;;;;;5092922;28;20055;-76
2022/02/02 06:10:38;;;;;;;46.78;25.02;;;7.10;99.90;;;;;;5093464;28;20044;-76
2022/02/02 06:13:04;;;;;;;28.50;11.13;;;7.20;98.50;;;;;;5093041;28;20051;-77
2022/02/02 06:15:32;;;;;;;19.10;10.55;;;7.40;97.40;;;;;;5093580;28;20038;-76
2022/02/02 06:18:01;;;;;;;21.88;9.95;;;7.50;96.00;;;;;;5093135;28;20377;-76
2022/02/02 06:20:27;;;;;;;17.60;8.13;;;7.50;95.70;;;;;;5093712;28;20488;-76
2022/02/02 06:23:07;;;;;;;17.65;5.20;;;7.50;95.30;;;;;;5092504;28;20042;-76
2022/02/02 06:25:44;;;;;;;11.68;4.20;;;7.60;94.30;;;;;;5093084;28;20036;-76
2022/02/02 06:28:23;;;;;;;15.30;5.13;;;7.60;94.20;;;;;;5093404;28;20028;-77
2022/02/02 06:31:01;;;;;;;20.15;5.20;;;7.70;93.50;;;;;;5091360;28;20051;-77
2022/02/02 06:33:33;;;;;;;24.48;6.97;;;7.70;93.50;;;;;;5093394;28;20374;-77
2022/02/02 06:36:01;;;;;;;16.35;5.00;;;7.60;93.60;;;;;;5092807;28;20373;-77
2022/02/02 06:38:29;;;;;;;13.90;5.40;;;7.50;93.70;;;;;;5093687;28;20028;-77
2022/02/02 06:40:57;;;;;;;13.05;4.88;;;7.50;94.10;;;;;;5092634;28;20024;-75
2022/02/02 06:43:25;;;;;;;24.63;5.32;;;7.40;94.50;;;;;;5092480;28;20377;-75
2022/02/02 06:45:51;;;;;;;12.90;4.88;;;7.40;94.70;;;;;;5092696;28;20049;-77
2022/02/02 06:48:18;;;;;;;10.90;5.18;;;7.30;95.20;;;;;;5092967;28;20035;-77
2022/02/02 06:50:55;;;;;;;10.20;4.90;;;7.30;95.20;;;;;;5092532;28;20032;-75
2022/02/02 06:53:30;;;;;;;18.77;6.47;;;7.30;95.30;;;;;;5092782;28;20035;-78
2022/02/02 07:07:47;;;;;;;11.77;5.07;;;7.50;93.90;;;;;;5092795;28;20032;-77
2022/02/02 07:10:29;;;;;;;19.88;5.47;;;7.50;93.40;;;;;;5092565;28;20029;-77
2022/02/02 07:18:43;;;;;;;11.70;4.85;;;7.60;93.20;;;;;;5092510;28;20032;-77
2022/02/02 07:29:10;;;;;;;19.90;5.68;;;7.70;92.20;;;;;;5091457;28;20036;-77
2022/02/02 07:35:04;;;;;;;13.60;4.75;;;7.70;92.40;;;;;;5092447;28;20032;-77
2022/02/02 07:37:36;;;;;;;17.73;4.38;;;7.70;92.30;;;;;;5064725;28;20036;-77
2022/02/02 07:40:06;;;;;;;15.75;5.70;;;7.70;92.60;;;;;;5092120;28;20094;-78
2022/02/02 07:42:33;;;;;;;14.45;5.30;;;7.60;92.30;;;;;;5092140;28;20036;-78
2022/02/02 07:45:10;;;;;;;9.23;4.07;;;7.60;92.40;;;;;;5091706;28;20043;-78
2022/02/02 07:47:44;;;;;;;22.92;5.85;;;7.60;92.30;;;;;;5092350;28;20040;-77
2022/02/02 07:50:12;;;;;;;12.63;5.75;;;7.60;92.60;;;;;;5091969;28;20032;-77
2022/02/02 07:52:41;;;;;;;16.50;5.10;;;7.60;92.60;;;;;;5090655;28;20473;-77
2022/02/02 07:55:09;;;;;;;11.45;4.80;;;7.70;92.60;;;;;;5076372;28;20484;-77
2022/02/02 07:57:36;;;;;;;16.48;6.15;;;7.70;91.80;;;;;;5096012;28;20043;-78
2022/02/02 08:00:09;;;;;;;10.40;4.88;;;7.80;91.60;;;;;;5095458;28;20039;-79
2022/02/02 08:05:17;;;;;;;13.25;4.75;;;7.80;91.40;;;;;;5095956;28;20036;-77
2022/02/02 08:07:59;;;;;;;18.67;4.85;;;7.90;91.30;;;;;;5094950;28;20036;-77
2022/02/02 08:10:26;;;;;;;18.48;4.97;;;7.90;91.40;;;;;;5094814;28;20036;-77
2022/02/02 08:12:59;;;;;;;21.98;5.18;;;7.80;91.40;;;;;;5095307;28;20045;-78
2022/02/02 08:15:30;;;;;;;30.98;6.00;;;7.80;91.40;;;;;;5095250;28;20453;-78
2022/02/02 08:17:56;;;;;;;13.52;4.75;;;7.90;90.90;;;;;;5094127;28;20040;-77
2022/02/02 08:20:24;;;;;;;11.60;5.57;;;8.00;91.20;;;;;;5094720;28;20040;-77
2022/02/02 08:22:50;;;;;;;8.90;4.28;;;8.00;91.30;;;;;;5095124;28;20028;-79
2022/02/02 08:25:26;;;;;;;11.90;6.00;;;8.10;91.30;;;;;;5095482;28;20031;-76
2022/02/02 08:27:54;;;;;;;23.15;5.90;;;8.20;91.80;;;;;;5093159;28;20040;-77
2022/02/02 08:30:23;;;;;;;11.70;4.78;;;8.20;91.40;;;;;;5077338;28;20036;-77
2022/02/02 08:33:13;;;;;;;11.85;5.25;;;8.50;91.10;;;;;;5094703;28;20063;-77
2022/02/02 08:35:43;;;;;;;17.90;4.97;;;8.40;91.10;;;;;;5093899;28;20035;-77
2022/02/02 08:40:51;;;;;;;14.50;4.75;;;8.30;91.00;;;;;;5094125;28;20028;-76
2022/02/02 08:43:32;;;;;;;14.05;4.80;;;8.40;90.80;;;;;;5094639;28;20118;-77
2022/02/02 08:46:05;;;;;;;16.08;5.05;;;8.40;90.60;;;;;;5091863;28;20039;-76
2022/02/02 08:48:31;;;;;;;16.77;4.90;;;8.50;90.40;;;;;;5094316;28;20040;-76
2022/02/02 08:51:03;;;;;;;9.85;4.25;;;8.70;90.70;;;;;;5093516;28;20032;-75
2022/02/02 08:53:36;;;;;;;17.73;4.80;;;8.80;88.50;;;;;;5094316;28;20036;-77
2022/02/02 08:56:32;;;;;;;10.00;4.10;;;8.90;87.60;;;;;;5093305;28;20381;-77
2022/02/02 08:59:04;;;;;;;12.35;4.45;;;9.10;87.60;;;;;;5092530;28;20039;-76
2022/02/02 09:01:34;;;;;;;8.48;4.00;;;9.20;87.10;;;;;;5094764;28;20492;-76
2022/02/02 09:06:45;;;;;;;10.20;3.70;;;9.10;87.70;;;;;;5093059;28;20043;-75
2022/02/02 09:09:18;;;;;;;13.18;4.63;;;9.20;88.20;;;;;;5073478;28;20028;-76
2022/02/02 09:20:09;;;;;;;10.07;4.32;;;8.70;88.90;;;;;;5092094;28;20031;-76
2022/02/02 09:25:55;;;;;;;31.33;4.97;;;8.80;88.30;;;;;;5094444;28;20256;-75
2022/02/02 09:36:29;;;;;;;18.15;5.28;;;9.00;86.70;;;;;;5094296;28;20027;-75
2022/02/02 09:38:57;;;;;;;;;;;9.10;87.00;;;;;;5094112;28;20046;-77
2022/02/02 09:43:57;;;;;;;11.90;4.53;;;9.40;85.50;;;;;;5093551;28;20048;-75
2022/02/02 09:46:28;;;;;;;;;;;9.40;84.50;;;;;;5094286;28;20029;-75
2022/02/02 09:49:01;;;;;;;;;;;9.50;83.90;;;;;;5094418;28;19912;-77
2022/02/02 09:51:34;;;;;;;20.08;5.47;;;9.60;81.50;;;;;;5093628;28;19908;-78
2022/02/02 09:54:11;;;;;;;11.68;4.15;;;9.80;80.10;;;;;;5092917;28;20040;-78
2022/02/02 09:59:33;;;;;;;15.68;5.32;;;9.90;79.70;;;;;;5073290;28;20063;-79
2022/02/02 10:05:12;;;;;;;9.35;4.00;;;9.80;78.20;;;;;;5074061;28;20028;-77
2022/02/02 10:15:37;;;;;;;11.60;4.72;;;9.70;77.00;;;;;;5044320;28;20068;-77
2022/02/02 10:18:13;;;;;;;12.00;3.13;;;9.60;77.40;;;;;;5051271;28;20025;-79
2022/02/02 10:20:40;;;;;;;11.95;3.78;;;9.50;77.80;;;;;;5053512;28;20053;-78
2022/02/02 10:23:07;;;;;;;8.70;3.40;;;9.50;77.50;;;;;;5052281;28;20041;-79
2022/02/02 10:25:40;;;;;;;18.33;5.25;;;9.50;77.20;;;;;;5053128;28;20048;-78
2022/02/02 10:28:17;;;;;;;17.10;4.43;;;9.40;77.10;;;;;;5052164;28;20033;-78
2022/02/02 10:30:52;;;;;;;18.63;5.55;;;9.50;77.20;;;;;;5053199;28;20052;-79
2022/02/02 10:33:20;;;;;;;13.52;4.22;;;9.50;77.80;;;;;;5052495;28;20119;-78
2022/02/02 10:35:49;;;;;;;12.43;4.50;;;9.50;77.50;;;;;;5054251;28;20021;-78
2022/02/02 10:38:19;;;;;;;15.25;4.88;;;9.50;76.60;;;;;;5053413;28;20037;-78
2022/02/02 10:43:59;;;;;;;12.13;3.53;;;10.00;75.00;;;;;;5029419;28;20040;-79
2022/02/02 10:46:52;;;;;;;19.20;4.10;;;10.10;72.80;;;;;;5052552;28;20040;-79
2022/02/02 10:49:35;;;;;;;12.13;4.03;;;10.00;73.40;;;;;;5051186;28;20341;-79
2022/02/02 10:52:23;;;;;;;10.00;3.63;;;10.00;73.20;;;;;;5051662;28;20037;-79
2022/02/02 10:55:15;;;;;;;18.98;4.18;;;9.90;73.50;;;;;;5052351;28;20485;-80
2022/02/02 10:58:00;;;;;;;20.95;4.07;;;9.90;74.00;;;;;;5059725;28;20052;-78
2022/02/02 11:00:45;;;;;;;10.48;3.83;;;10.10;73.40;;;;;;5071503;28;20031;-79
2022/02/02 11:08:45;;;;;;;8.80;3.75;;;10.10;71.00;;;;;;5072201;28;20070;-80
2022/02/02 11:11:11;;;;;;;14.95;3.20;;;10.10;71.50;;;;;;5072011;28;20029;-78
2022/02/02 11:13:40;;;;;;;19.35;4.72;;;10.10;69.90;;;;;;5072687;28;20393;-79
2022/02/02 11:16:10;;;;;;;11.82;3.15;;;10.10;69.70;;;;;;5071622;28;20020;-79
2022/02/02 11:18:41;;;;;;;10.68;3.20;;;10.10;69.50;;;;;;5075460;28;20044;-78
2022/02/02 11:21:21;;;;;;;14.70;3.90;;;10.20;70.60;;;;;;5089970;28;20046;-79
2022/02/02 11:23:52;;;;;;;20.25;4.57;;;10.20;70.20;;;;;;5092081;28;20469;-79
2022/02/02 11:26:45;;;;;;;10.00;3.78;;;10.30;69.40;;;;;;5091688;28;20024;-79
2022/02/02 11:29:41;;;;;;;10.27;3.00;;;10.30;69.50;;;;;;5091705;28;20036;-80
2022/02/02 11:32:13;;;;;;;15.45;2.95;;;10.30;68.50;;;;;;5093834;28;20035;-79
2022/02/02 11:34:40;;;;;;;9.20;2.67;;;10.40;68.70;;;;;;5096039;28;20484;-80
2022/02/02 11:37:08;;;;;;;8.02;2.17;;;10.40;66.40;;;;;;5095574;28;20039;-79
2022/02/02 11:39:50;;;;;;;9.07;2.38;;;10.30;65.80;;;;;;5096328;28;20058;-78
2022/02/02 11:42:57;;;;;;;8.40;2.88;;;10.20;66.00;;;;;;5092668;28;20473;-79
2022/02/02 11:45:55;;;;;;;8.20;2.03;;;10.30;64.90;;;;;;5093418;28;20032;-80
2022/02/02 11:48:55;;;;;;;7.45;3.03;;;10.10;65.10;;;;;;5095314;28;20028;-78
2022/02/02 11:51:38;;;;;;;10.77;3.13;;;10.10;66.20;;;;;;5095456;28;20047;-79
2022/02/02 11:54:07;;;;;;;7.47;1.75;;;10.40;65.60;;;;;;5095610;28;20082;-79
2022/02/02 11:57:02;;;;;;;6.75;1.92;;;10.40;65.00;;;;;;5096457;28;20039;-78
2022/02/02 11:59:45;;;;;;;9.13;2.53;;;10.20;65.10;;;;;;5096468;28;20036;-80
2022/02/02 12:02:21;;;;;;;8.63;2.10;;;10.10;64.40;;;;;;5094918;28;20040;-79
2022/02/02 12:08:35;;;;;;;7.88;2.53;;;10.30;65.10;;;;;;4992562;28;20038;-78
2022/02/02 13:00:50;;;;;;;5.82;2.25;;;10.60;63.30;;;;;;5091332;28;20040;-79
2022/02/02 13:03:17;;;;;;;6.70;3.20;;;10.80;62.60;;;;;;5094665;28;20047;-79
2022/02/02 13:05:45;;;;;;;11.02;2.78;;;10.80;64.20;;;;;;5094913;28;20039;-79
2022/02/02 13:08:12;;;;;;;5.97;1.80;;;10.80;63.90;;;;;;5094052;28;20036;-80
2022/02/02 13:10:38;;;;;;;6.88;2.72;;;10.80;64.90;;;;;;5076517;28;20039;-79
2022/02/02 13:13:22;;;;;;;8.75;2.65;;;10.90;64.70;;;;;;5094651;28;20028;-79
2022/02/02 13:16:18;;;;;;;10.38;2.67;;;11.10;64.50;;;;;;5094879;28;20020;-79
2022/02/02 13:18:49;;;;;;;7.78;2.75;;;11.30;63.70;;;;;;5095121;28;20032;-80
2022/02/02 13:21:30;;;;;;;5.97;2.78;;;11.30;63.30;;;;;;5094145;28;20031;-80
2022/02/02 13:27:15;;;;;;;10.95;3.20;;;11.20;64.70;;;;;;5089540;28;20044;-79
2022/02/02 13:29:49;;;;;;;8.55;3.50;;;11.30;64.80;;;;;;5094325;28;20024;-80
2022/02/02 13:32:22;;;;;;;9.48;3.42;;;11.50;64.20;;;;;;5074930;28;20472;-80
2022/02/02 13:35:02;;;;;;;18.83;4.97;;;11.30;64.20;;;;;;5093963;28;20035;-80
2022/02/02 13:46:25;;;;;;;7.88;2.85;;;10.90;64.40;;;;;;5094393;28;20032;-78
2022/02/02 13:52:08;;;;;;;10.02;3.28;;;10.90;65.60;;;;;;5091044;28;20023;-79
2022/02/02 13:54:48;;;;;;;8.77;4.55;;;10.80;64.10;;;;;;5094400;28;20373;-79
2022/02/02 14:00:28;;;;;;;7.90;3.10;;;10.90;64.80;;;;;;5093807;28;20036;-80
2022/02/02 14:09:37;;;;;;;7.55;2.53;;;11.00;63.30;;;;;;5061576;28;20032;-81
2022/02/02 14:33:03;;;;;;;10.90;3.05;;;10.30;62.90;;;;;;5093500;28;20058;-81
2022/02/02 14:35:30;;;;;;;18.98;3.63;;;10.30;63.20;;;;;;5092622;28;20024;-80
2022/02/02 14:37:58;;;;;;;8.43;3.17;;;10.30;63.50;;;;;;5093323;28;20024;-80
2022/02/02 14:40:41;;;;;;;9.70;3.65;;;10.30;64.50;;;;;;5092925;28;20604;-80
2022/02/02 14:43:10;;;;;;;9.32;3.20;;;10.30;64.40;;;;;;5096266;28;20449;-80
2022/02/02 14:45:40;;;;;;;12.07;3.67;;;10.30;65.20;;;;;;5092382;28;20028;-80
2022/02/02 14:48:20;;;;;;;11.95;3.42;;;10.30;65.70;;;;;;5093019;28;20031;-80
2022/02/02 14:51:01;;;;;;;17.52;4.68;;;10.30;66.30;;;;;;5093089;28;20028;-80
2022/02/02 14:54:02;;;;;;;17.48;8.88;;;10.30;67.30;;;;;;5092671;28;20032;-80
2022/02/02 15:09:56;;;;;;;10.65;3.30;;;10.00;70.20;;;;;;5074135;28;20040;-79
2022/02/02 15:28:49;;;;;;;13.93;4.75;;;10.10;70.90;;;;;;5092451;28;20024;-79
2022/02/02 15:31:16;;;;;;;8.00;3.83;;;10.10;71.10;;;;;;5092526;28;20497;-81
2022/02/02 15:33:46;;;;;;;8.95;3.80;;;10.00;73.40;;;;;;5093348;28;20051;-80
2022/02/02 15:39:00;;;;;;;14.32;3.63;;;9.90;77.60;;;;;;5092323;28;20028;-79
2022/02/02 15:41:36;;;;;;;7.80;3.65;;;9.80;78.60;;;;;;5091610;28;20024;-80
2022/02/02 16:05:41;;;;;;;12.55;4.38;;;9.20;84.70;;;;;;5091742;28;20036;-80
2022/02/02 16:08:09;;;;;;;9.77;3.58;;;9.20;85.20;;;;;;5092168;28;20035;-80
2022/02/02 16:10:53;;;;;;;16.30;4.43;;;9.20;86.00;;;;;;5091569;28;20344;-80
2022/02/02 16:15:58;;;;;;;6.28;3.78;;;9.10;86.70;;;;;;5094687;28;20031;-80
2022/02/02 16:18:39;;;;;;;6.03;2.90;;;9.10;87.10;;;;;;5095517;28;20031;-80
2022/02/02 16:37:41;;;;;;;12.85;4.57;;;9.10;88.70;;;;;;5095116;28;20028;-81
2022/02/02 16:40:11;;;;;;;9.82;4.63;;;9.10;89.10;;;;;;5095798;28;20032;-80
2022/02/02 16:43:10;;;;;;;13.05;3.70;;;9.10;89.20;;;;;;5095355;28;20354;-79
2022/02/02 16:45:38;;;;;;;5.75;4.05;;;9.10;89.40;;;;;;5094858;28;20039;-79
2022/02/02 16:48:05;;;;;;;14.57;3.75;;;9.20;89.20;;;;;;5095398;28;20032;-79
2022/02/02 16:50:35;;;;;;;10.23;4.38;;;9.10;89.70;;;;;;5095310;28;20016;-79
2022/02/02 16:53:08;;;;;;;13.70;4.90;;;9.00;89.80;;;;;;5095522;28;20058;-79
2022/02/02 17:33:10;;;;;;;5.50;3.28;;;9.20;91.10;;;;;;5094059;28;20042;-83
2022/02/02 17:35:58;;;;;;;4.20;2.92;;;9.10;91.40;;;;;;5088051;28;20032;-82
2022/02/02 17:41:15;;;;;;;5.10;3.05;;;9.10;91.70;;;;;;5094328;28;20032;-81
2022/02/02 18:14:25;;;;;;;6.90;3.03;;;8.90;93.50;;;;;;5065582;28;20040;-77
2022/02/02 18:17:13;;;;;;;6.38;3.17;;;8.80;94.00;;;;;;5091676;28;20032;-77
2022/02/02 18:19:08;;;;;;;7.53;4.20;;;8.80;94.20;;;;;;5073187;28;20028;-78
2022/02/02 18:21:35;;;;;;;5.13;2.80;;;8.70;94.50;;;;;;5073033;28;20035;-78
2022/02/02 18:24:18;;;;;;;5.13;3.95;;;8.70;94.80;;;;;;5056483;28;20039;-79
2022/02/02 18:27:00;;;;;;;4.38;3.33;;;8.60;95.20;;;;;;5072386;28;20036;-78
2022/02/02 18:34:38;;;;;;;8.60;3.83;;;8.70;95.90;;;;;;5073618;28;20465;-77
2022/02/02 18:41:02;;;;;;;5.78;3.58;;;8.70;95.90;;;;;;5073429;28;20036;-77
2022/02/02 18:43:20;;;;;;;5.25;3.30;;;8.70;96.00;;;;;;5073030;28;20040;-77
2022/02/02 18:46:35;;;;;;;5.25;3.10;;;8.70;96.30;;;;;;5071557;28;20044;-77
2022/02/02 18:48:38;;;;;;;5.43;3.13;;;8.70;96.20;;;;;;5060857;28;20041;-78
2022/02/02 18:57:19;;;;;;;8.32;2.88;;;8.50;97.30;;;;;;5071868;28;20028;-78
2022/02/02 19:02:00;;;;;;;8.43;2.58;;;8.50;98.30;;;;;;5074389;28;20048;-77
2022/02/02 19:14:58;;;;;;;6.70;3.22;;;8.60;97.90;;;;;;5091711;28;20042;-76
2022/02/02 20:12:03;;;;;;;10.30;3.60;;;8.50;99.90;;;;;;5092948;28;20032;-77
2022/02/02 20:14:30;;;;;;;6.45;3.47;;;8.40;99.90;;;;;;5075873;28;20051;-77
2022/02/02 20:16:56;;;;;;;7.20;4.93;;;8.40;99.90;;;;;;5076469;28;20035;-77
2022/02/02 20:19:22;;;;;;;10.25;6.90;;;8.40;99.90;;;;;;5094838;28;20449;-76
2022/02/02 20:21:53;;;;;;;10.23;9.15;;;8.40;99.90;;;;;;5096327;28;20024;-76
2022/02/02 20:24:26;;;;;;;12.52;8.45;;;8.40;99.90;;;;;;5095579;28;20420;-73
2022/02/02 20:26:53;;;;;;;7.93;6.18;;;8.40;99.90;;;;;;5095350;28;20036;-80
2022/02/02 20:29:19;;;;;;;7.18;5.15;;;8.30;99.90;;;;;;5077666;28;20039;-76
2022/02/02 20:31:45;;;;;;;4.55;3.83;;;8.30;99.90;;;;;;5094238;28;20043;-78
2022/02/02 20:34:12;;;;;;;4.50;3.70;;;8.20;99.90;;;;;;5094507;28;20028;-76
2022/02/02 20:36:40;;;;;;;6.85;5.00;;;8.10;99.90;;;;;;5094901;28;20047;-76
2022/02/02 20:39:15;;;;;;;5.13;4.45;;;8.00;99.90;;;;;;5095303;28;20036;-76
2022/02/02 20:41:42;;;;;;;9.25;5.32;;;8.00;99.90;;;;;;5094425;28;20374;-82
2022/02/02 20:44:18;;;;;;;10.15;7.72;;;8.00;99.90;;;;;;5095184;28;20036;-83
2022/02/02 20:47:05;;;;;;;7.72;6.93;;;7.90;99.90;;;;;;5094630;28;20040;-82
2022/02/02 21:01:10;;;;;;;8.55;6.75;;;7.80;99.90;;;;;;5094962;28;20039;-84
2022/02/02 21:11:12;;;;;;;12.15;9.38;;;7.80;99.90;;;;;;5074894;28;20037;-85
2022/02/02 21:13:42;;;;;;;8.98;7.53;;;7.80;99.90;;;;;;5074042;28;20099;-86
2022/02/02 21:16:09;;;;;;;6.13;5.53;;;7.80;99.90;;;;;;5075146;28;20048;-87
2022/02/02 21:18:37;;;;;;;5.93;4.40;;;7.80;99.90;;;;;;5075112;28;20029;-85
2022/02/02 21:21:15;;;;;;;10.35;5.72;;;7.80;99.90;;;;;;5074556;28;20033;-87
2022/02/02 21:26:50;;;;;;;7.25;5.30;;;7.80;99.90;;;;;;5066578;28;20067;-83
2022/02/02 21:29:16;;;;;;;9.13;6.35;;;7.80;99.90;;;;;;5096137;28;20040;-83
2022/02/02 21:31:43;;;;;;;6.20;5.60;;;7.70;99.90;;;;;;5094726;28;20050;-84
2022/02/02 21:34:09;;;;;;;8.80;6.20;;;7.60;99.90;;;;;;5096093;28;20036;-85
2022/02/02 21:36:35;;;;;;;6.38;4.80;;;7.60;99.90;;;;;;5099045;28;20024;-84
2022/02/02 21:39:07;;;;;;;8.43;6.40;;;7.50;99.90;;;;;;5079686;28;20366;-85
2022/02/02 21:41:37;;;;;;;17.02;6.70;;;7.50;99.90;;;;;;5079084;28;20039;-84
2022/02/02 21:44:06;;;;;;;7.30;6.50;;;7.40;99.90;;;;;;5095765;28;20376;-85
2022/02/02 21:46:32;;;;;;;9.63;8.32;;;7.50;99.90;;;;;;5095983;28;20047;-86
2022/02/02 21:49:02;;;;;;;9.65;7.00;;;7.40;99.90;;;;;;5095337;28;20384;-85
2022/02/02 21:51:41;;;;;;;12.38;7.47;;;7.40;99.90;;;;;;5096517;28;20346;-84
2022/02/02 21:54:07;;;;;;;9.38;8.45;;;7.40;99.90;;;;;;5096247;28;20385;-85
2022/02/02 21:56:33;;;;;;;11.60;9.48;;;7.40;99.90;;;;;;5094802;28;20047;-84
2022/02/02 21:58:59;;;;;;;11.85;8.13;;;7.40;99.90;;;;;;5094336;28;20048;-85
2022/02/02 22:01:27;;;;;;;11.18;9.88;;;7.40;99.90;;;;;;5077580;28;20029;-84
2022/02/02 22:03:53;;;;;;;12.80;9.80;;;7.40;99.90;;;;;;5094329;28;20016;-84
2022/02/02 22:06:20;;;;;;;12.52;9.48;;;7.30;99.90;;;;;;5094776;28;20457;-84
2022/02/02 22:08:46;;;;;;;14.15;10.20;;;7.40;99.90;;;;;;5094447;28;20032;-84
2022/02/02 22:11:12;;;;;;;12.13;10.90;;;7.30;99.90;;;;;;5095269;28;20051;-85
2022/02/02 22:13:46;;;;;;;13.55;12.07;;;7.40;99.90;;;;;;5095097;28;20039;-85
2022/02/02 22:16:18;;;;;;;13.05;10.75;;;7.30;99.90;;;;;;5094688;28;20032;-86
2022/02/02 22:18:46;;;;;;;12.82;11.50;;;7.30;99.90;;;;;;5077505;28;20404;-85
2022/02/02 22:21:12;;;;;;;14.90;11.48;;;7.30;99.90;;;;;;5077215;28;20040;-85
2022/02/02 22:23:41;;;;;;;16.20;12.18;;;7.30;99.90;;;;;;5059870;28;20032;-85
2022/02/02 22:26:08;;;;;;;11.77;10.63;;;7.30;99.90;;;;;;5094167;28;20397;-85
2022/02/02 22:28:35;;;;;;;15.30;11.88;;;7.30;99.90;;;;;;5094033;28;20039;-85
2022/02/02 22:31:01;;;;;;;12.15;10.95;;;7.40;99.90;;;;;;5094300;28;20040;-84
2022/02/02 22:33:27;;;;;;;14.65;11.18;;;7.40;99.90;;;;;;5093317;28;20028;-86
2022/02/02 22:35:54;;;;;;;20.08;11.52;;;7.40;99.90;;;;;;5092520;28;20031;-86
2022/02/02 22:38:20;;;;;;;17.00;11.80;;;7.30;99.90;;;;;;5093296;28;20027;-86
2022/02/02 22:40:47;;;;;;;13.73;10.18;;;7.40;99.90;;;;;;5093132;28;20065;-85
2022/02/02 22:43:13;;;;;;;15.23;11.27;;;7.30;99.90;;;;;;5093206;28;20078;-85
2022/02/02 22:45:44;;;;;;;14.93;11.90;;;7.40;99.90;;;;;;5093375;28;20461;-84
2022/02/02 22:48:14;;;;;;;22.23;11.07;;;7.40;99.90;;;;;;5093506;28;20031;-85
2022/02/02 22:50:40;;;;;;;13.33;12.03;;;7.40;99.90;;;;;;5093452;28;20138;-85
2022/02/02 22:53:06;;;;;;;12.75;11.55;;;7.40;99.90;;;;;;5094087;28;20284;-86
2022/02/02 22:55:33;;;;;;;17.83;11.27;;;7.40;99.90;;;;;;5093124;28;20035;-84
2022/02/02 22:57:59;;;;;;;12.27;11.05;;;7.40;99.90;;;;;;5091798;28;20052;-83
2022/02/02 23:00:36;;;;;;;14.68;10.90;;;7.40;99.90;;;;;;5092515;28;20028;-83
2022/02/02 23:03:05;;;;;;;13.10;11.63;;;7.40;99.90;;;;;;5093816;28;20036;-83
2022/02/02 23:05:38;;;;;;;11.43;10.32;;;7.40;99.90;;;;;;5099913;28;20039;-84
2022/02/02 23:08:07;;;;;;;15.15;10.55;;;7.40;99.90;;;;;;5100231;28;20465;-83
2022/02/02 23:10:35;;;;;;;11.93;10.80;;;7.40;99.90;;;;;;5098185;28;20039;-84
2022/02/02 23:13:02;;;;;;;12.20;10.90;;;7.40;99.90;;;;;;5093483;28;20039;-83
2022/02/02 23:15:45;;;;;;;12.25;10.10;;;7.40;99.90;;;;;;5092869;28;20039;-83
2022/02/02 23:18:23;;;;;;;15.65;11.45;;;7.40;99.90;;;;;;5093209;28;20028;-83
2022/02/02 23:20:54;;;;;;;11.45;10.20;;;7.30;99.90;;;;;;5074292;28;20040;-83
2022/02/02 23:23:25;;;;;;;17.10;11.10;;;7.40;99.90;;;;;;5075014;28;20039;-83
2022/02/02 23:25:53;;;;;;;12.32;10.77;;;7.30;99.90;;;;;;5090783;28;20420;-83
2022/02/02 23:28:24;;;;;;;12.13;10.95;;;7.30;99.90;;;;;;5091859;28;20020;-83
2022/02/02 23:30:51;;;;;;;17.35;10.68;;;7.30;99.90;;;;;;5091985;28;20116;-83
2022/02/02 23:33:18;;;;;;;11.73;10.40;;;7.30;99.90;;;;;;5092525;28;20039;-83
2022/02/02 23:35:46;;;;;;;16.50;10.70;;;7.30;99.90;;;;;;5092436;28;20461;-80
2022/02/02 23:38:13;;;;;;;12.05;10.77;;;7.30;99.90;;;;;;5092178;28;20028;-85
2022/02/02 23:43:25;;;;;;;13.40;12.20;;;7.40;99.90;;;;;;5093099;28;20024;-84
2022/02/02 23:45:56;;;;;;;16.15;13.35;;;7.40;99.90;;;;;;5074060;28;20047;-82
2022/02/02 23:48:27;;;;;;;17.20;11.77;;;7.40;99.90;;;;;;5079549;28;20039;-82
2022/02/02 23:50:57;;;;;;;13.20;11.40;;;7.40;99.90;;;;;;5091828;28;20036;-84
2022/02/02 23:53:25;;;;;;;12.45;11.27;;;7.40;99.90;;;;;;5093103;28;20035;-81
2022/02/02 23:56:02;;;;;;;16.08;13.15;;;7.40;99.90;;;;;;5091368;28;20043;-81